createdAt,value
2017-08-18T00:00:23.679Z,6.63
2017-08-18T00:02:50.031Z,7.10
2017-08-18T00:05:15.780Z,6.67
2017-08-18T00:07:41.582Z,6.23
2017-08-18T00:10:07.451Z,5.97
2017-08-18T00:12:33.255Z,6.80
2017-08-18T00:14:59.142Z,6.90
2017-08-18T00:17:24.907Z,6.17
2017-08-18T00:19:50.713Z,6.17
2017-08-18T00:22:16.490Z,5.80
2017-08-18T00:24:42.265Z,7.23
2017-08-18T00:27:08.051Z,6.63
2017-08-18T00:29:33.803Z,6.23
2017-08-18T00:31:59.578Z,6.57
2017-08-18T00:34:25.383Z,6.43
2017-08-18T00:36:51.142Z,6.90
2017-08-18T00:39:16.901Z,7.57
2017-08-18T00:41:42.686Z,6.23
2017-08-18T00:44:08.440Z,6.70
2017-08-18T00:46:34.260Z,6.83
2017-08-18T00:49:00.004Z,8.30
2017-08-18T00:51:25.790Z,7.30
2017-08-18T00:53:51.556Z,7.83
2017-08-18T00:56:17.351Z,7.47
2017-08-18T00:58:43.111Z,6.80
2017-08-18T01:01:08.897Z,6.27
2017-08-18T01:03:34.680Z,7.00
2017-08-18T01:06:00.475Z,7.20
2017-08-18T01:08:26.331Z,7.17
2017-08-18T01:10:52.091Z,5.80
2017-08-18T01:13:17.931Z,7.60
2017-08-18T01:15:43.689Z,6.97
2017-08-18T01:18:09.467Z,6.50
2017-08-18T01:20:35.243Z,6.17
2017-08-18T01:23:01.029Z,7.40
2017-08-18T01:25:26.790Z,6.10
2017-08-18T01:27:52.570Z,6.90
2017-08-18T01:30:18.374Z,5.63
2017-08-18T01:32:44.151Z,6.57
2017-08-18T01:35:09.894Z,6.70
2017-08-18T01:37:35.731Z,6.20
2017-08-18T01:40:01.475Z,6.23
2017-08-18T01:42:27.218Z,5.63
2017-08-18T01:44:52.999Z,6.97
2017-08-18T01:47:18.787Z,5.70
2017-08-18T01:49:44.555Z,6.60
2017-08-18T01:52:10.310Z,6.53
2017-08-18T01:54:36.087Z,5.80
2017-08-18T01:57:01.859Z,6.67
2017-08-18T01:59:27.639Z,6.97
2017-08-18T02:01:53.471Z,5.80
2017-08-18T02:04:19.227Z,5.27
2017-08-18T02:06:45.047Z,6.00
2017-08-18T02:09:10.784Z,5.37
2017-08-18T02:11:36.523Z,6.07
2017-08-18T02:14:02.319Z,6.77
2017-08-18T02:16:28.059Z,6.37
2017-08-18T02:18:53.856Z,6.87
2017-08-18T02:21:19.607Z,6.10
2017-08-18T02:23:45.358Z,6.40
2017-08-18T02:26:11.163Z,6.00
2017-08-18T02:28:36.902Z,6.50
2017-08-18T02:31:02.680Z,5.50
2017-08-18T02:33:28.479Z,6.20
2017-08-18T02:35:54.255Z,5.37
2017-08-18T02:38:20.015Z,5.97
2017-08-18T02:40:45.773Z,6.37
2017-08-18T02:43:11.567Z,5.57
2017-08-18T02:45:37.394Z,7.00
2017-08-18T02:48:03.180Z,6.30
2017-08-18T02:50:28.928Z,5.70
2017-08-18T02:52:54.766Z,5.83
2017-08-18T02:55:20.619Z,6.90
2017-08-18T02:57:46.395Z,6.00
2017-08-18T03:00:12.250Z,5.93
2017-08-18T03:02:38.085Z,6.17
2017-08-18T03:05:03.843Z,6.03
2017-08-18T03:07:29.590Z,5.97
2017-08-18T03:09:55.484Z,6.60
2017-08-18T03:12:21.235Z,6.67
2017-08-18T03:14:46.987Z,6.90
2017-08-18T03:17:12.775Z,6.03
2017-08-18T03:19:38.522Z,7.20
2017-08-18T03:22:04.303Z,6.63
2017-08-18T03:24:30.062Z,7.67
2017-08-18T03:26:55.930Z,6.37
2017-08-18T03:29:21.745Z,6.30
2017-08-18T03:31:47.507Z,6.67
2017-08-18T03:34:13.307Z,7.23
2017-08-18T03:36:39.093Z,6.67
2017-08-18T03:39:04.939Z,6.30
2017-08-18T03:41:30.691Z,6.53
2017-08-18T03:43:56.475Z,7.50
2017-08-18T03:46:22.239Z,6.30
2017-08-18T03:48:47.997Z,5.80
2017-08-18T03:51:13.787Z,6.37
2017-08-18T03:53:39.558Z,6.40
2017-08-18T03:56:05.348Z,5.43
2017-08-18T03:58:31.109Z,5.37
2017-08-18T04:00:56.915Z,6.00
2017-08-18T04:03:23.102Z,5.17
2017-08-18T04:05:48.933Z,4.80
2017-08-18T04:08:15.310Z,4.50
2017-08-18T04:10:41.211Z,4.73
2017-08-18T04:13:07.028Z,4.97
2017-08-18T04:15:32.786Z,5.10
2017-08-18T04:17:58.671Z,4.77
2017-08-18T04:20:24.496Z,4.83
2017-08-18T04:22:50.350Z,4.80
2017-08-18T04:25:16.103Z,5.30
2017-08-18T04:27:41.870Z,4.60
2017-08-18T04:30:07.642Z,4.30
2017-08-18T04:32:33.389Z,4.13
2017-08-18T04:34:59.167Z,3.83
2017-08-18T04:37:24.923Z,5.37
2017-08-18T04:39:50.799Z,4.10
2017-08-18T04:42:16.598Z,5.33
2017-08-18T04:44:42.343Z,4.37
2017-08-18T04:47:08.126Z,4.43
2017-08-18T04:49:33.914Z,4.33
2017-08-18T04:51:59.721Z,4.80
2017-08-18T04:54:25.475Z,5.00
2017-08-18T04:56:51.374Z,4.30
2017-08-18T04:59:17.164Z,4.80
2017-08-18T05:01:42.933Z,4.90
2017-08-18T05:04:08.714Z,4.47
2017-08-18T05:06:34.534Z,4.33
2017-08-18T05:09:00.363Z,4.93
2017-08-18T05:11:26.219Z,5.00
2017-08-18T05:13:51.975Z,4.20
2017-08-18T05:16:17.769Z,4.07
2017-08-18T05:18:43.575Z,5.60
2017-08-18T05:21:09.463Z,4.00
2017-08-18T05:23:35.250Z,4.53
2017-08-18T05:26:01.014Z,3.93
2017-08-18T05:28:26.846Z,4.87
2017-08-18T05:30:52.734Z,4.30
2017-08-18T05:33:18.533Z,4.40
2017-08-18T05:35:44.272Z,6.00
2017-08-18T05:38:10.035Z,4.60
2017-08-18T05:40:35.830Z,4.00
2017-08-18T05:43:01.702Z,4.53
2017-08-18T05:45:27.573Z,4.60
2017-08-18T05:47:53.424Z,4.70
2017-08-18T05:50:19.174Z,4.70
2017-08-18T05:52:44.992Z,4.23
2017-08-18T05:55:10.860Z,3.33
2017-08-18T05:57:36.659Z,4.50
2017-08-18T06:00:02.562Z,3.20
2017-08-18T06:02:28.407Z,4.00
2017-08-18T06:04:54.205Z,3.47
2017-08-18T06:07:20.006Z,3.70
2017-08-18T06:09:45.747Z,4.50
2017-08-18T06:12:11.482Z,4.67
2017-08-18T06:14:37.271Z,5.53
2017-08-18T06:17:03.052Z,3.73
2017-08-18T06:19:28.880Z,3.80
2017-08-18T06:21:54.651Z,4.33
2017-08-18T06:24:20.520Z,3.70
2017-08-18T06:26:46.274Z,3.93
2017-08-18T06:29:12.035Z,3.80
2017-08-18T06:31:37.840Z,4.27
2017-08-18T06:34:03.613Z,3.70
2017-08-18T06:36:29.366Z,2.93
2017-08-18T06:38:55.146Z,3.43
2017-08-18T06:41:20.890Z,3.30
2017-08-18T06:43:46.670Z,3.10
2017-08-18T06:48:51.591Z,3.70
2017-08-18T06:51:17.339Z,3.13
2017-08-18T06:53:43.127Z,3.57
2017-08-18T06:56:08.876Z,3.03
2017-08-18T06:58:34.663Z,2.73
2017-08-18T07:01:00.472Z,2.90
2017-08-18T07:03:26.245Z,3.00
2017-08-18T07:05:52.002Z,3.70
2017-08-18T07:08:17.787Z,3.90
2017-08-18T07:10:43.546Z,3.37
2017-08-18T07:13:09.310Z,3.40
2017-08-18T07:15:35.089Z,2.70
2017-08-18T07:18:00.879Z,3.33
2017-08-18T07:20:26.640Z,2.87
2017-08-18T07:22:52.430Z,3.00
2017-08-18T07:25:18.228Z,3.50
2017-08-18T07:27:43.974Z,3.07
2017-08-18T07:30:09.787Z,2.77
2017-08-18T07:32:35.599Z,2.90
2017-08-18T07:35:01.427Z,2.60
2017-08-18T07:37:27.176Z,3.20
2017-08-18T07:39:52.942Z,2.43
2017-08-18T07:42:18.728Z,2.80
2017-08-18T07:44:44.494Z,2.80
2017-08-18T07:47:10.262Z,2.90
2017-08-18T07:49:36.066Z,2.70
2017-08-18T07:52:01.823Z,2.77
2017-08-18T07:54:27.590Z,3.30
2017-08-18T07:56:53.467Z,2.87
2017-08-18T07:59:19.279Z,2.30
2017-08-18T08:01:45.015Z,3.10
2017-08-18T08:04:10.758Z,2.57
2017-08-18T08:06:36.563Z,2.77
2017-08-18T08:09:02.431Z,2.73
2017-08-18T08:11:28.190Z,3.20
2017-08-18T08:13:53.962Z,2.70
2017-08-18T08:16:19.702Z,2.67
2017-08-18T08:18:45.485Z,2.93
2017-08-18T08:21:11.234Z,2.70
2017-08-18T08:23:36.994Z,2.43
2017-08-18T08:26:02.792Z,2.50
2017-08-18T08:28:28.542Z,2.80
2017-08-18T08:30:54.295Z,2.30
2017-08-18T08:33:20.069Z,1.90
2017-08-18T08:35:45.843Z,1.90
2017-08-18T08:38:11.685Z,2.70
2017-08-18T08:40:37.438Z,2.10
2017-08-18T08:43:03.195Z,2.90
2017-08-18T08:45:28.991Z,2.17
2017-08-18T08:47:54.854Z,1.90
2017-08-18T08:50:20.653Z,2.30
2017-08-18T08:52:46.417Z,2.20
2017-08-18T08:55:12.220Z,2.40
2017-08-18T08:57:37.994Z,2.30
2017-08-18T09:00:03.807Z,2.00
2017-08-18T09:02:29.556Z,2.17
2017-08-18T09:04:55.385Z,2.73
2017-08-18T09:07:21.159Z,2.20
2017-08-18T09:09:46.899Z,2.00
2017-08-18T09:12:12.725Z,2.43
2017-08-18T09:14:38.510Z,2.10
2017-08-18T09:17:04.813Z,2.50
2017-08-18T09:19:30.570Z,2.10
2017-08-18T09:21:56.319Z,1.80
2017-08-18T09:24:22.096Z,1.97
2017-08-18T09:26:47.954Z,2.33
2017-08-18T09:29:13.698Z,2.63
2017-08-18T09:31:39.440Z,2.30
2017-08-18T09:34:05.265Z,2.67
2017-08-18T09:36:31.066Z,2.30
2017-08-18T09:38:56.920Z,2.87
2017-08-18T09:41:22.665Z,2.30
2017-08-18T09:43:48.542Z,2.00
2017-08-18T09:46:14.363Z,2.80
2017-08-18T09:48:52.688Z,2.40
2017-08-18T09:51:30.911Z,2.50
2017-08-18T09:54:08.866Z,2.43
2017-08-18T09:56:46.913Z,2.13
2017-08-18T09:59:12.703Z,1.77
2017-08-18T10:01:38.476Z,2.43
2017-08-18T10:04:04.331Z,2.60
2017-08-18T10:06:30.106Z,2.43
2017-08-18T10:08:55.864Z,2.60
2017-08-18T10:11:21.702Z,1.77
2017-08-18T10:13:47.459Z,1.93
2017-08-18T10:16:13.205Z,2.33
2017-08-18T10:18:39.002Z,2.20
2017-08-18T10:21:04.938Z,2.23
2017-08-18T10:23:30.707Z,2.20
2017-08-18T10:25:56.479Z,3.10
2017-08-18T10:28:22.319Z,2.97
2017-08-18T10:30:48.055Z,2.47
2017-08-18T10:33:13.827Z,2.83
2017-08-18T10:35:39.621Z,2.23
2017-08-18T10:38:05.422Z,2.60
2017-08-18T10:40:31.166Z,2.50
2017-08-18T10:42:56.954Z,2.20
2017-08-18T10:45:22.694Z,2.70
2017-08-18T10:47:48.475Z,2.70
2017-08-18T10:50:14.226Z,3.07
2017-08-18T10:52:40.019Z,3.07
2017-08-18T10:55:05.878Z,2.70
2017-08-18T10:57:31.635Z,2.30
2017-08-18T10:59:57.444Z,2.57
2017-08-18T11:02:23.200Z,2.10
2017-08-18T11:04:48.948Z,1.90
2017-08-18T11:07:14.772Z,2.23
2017-08-18T11:09:40.635Z,2.70
2017-08-18T11:12:06.378Z,1.80
2017-08-18T11:14:32.203Z,2.37
2017-08-18T11:16:58.029Z,2.30
2017-08-18T11:19:23.775Z,2.43
2017-08-18T11:21:49.539Z,2.00
2017-08-18T11:24:15.418Z,2.30
2017-08-18T11:26:41.171Z,2.43
2017-08-18T11:29:06.938Z,2.40
2017-08-18T11:31:32.696Z,2.20
2017-08-18T11:33:58.454Z,2.00
2017-08-18T11:36:24.244Z,2.43
2017-08-18T11:38:50.015Z,2.70
2017-08-18T11:41:15.771Z,2.87
2017-08-18T11:43:41.554Z,20.93
2017-08-18T11:46:07.311Z,3.43
2017-08-18T11:48:33.098Z,2.73
2017-08-18T11:50:58.858Z,2.50
2017-08-18T11:53:24.606Z,3.27
2017-08-18T11:55:50.384Z,2.53
2017-08-18T11:58:16.171Z,31.10
2017-08-18T12:00:41.947Z,25.30
2017-08-18T12:03:07.719Z,35.73
2017-08-18T12:05:33.508Z,5.80
2017-08-18T12:07:59.290Z,2.07
2017-08-18T12:10:25.091Z,2.27
2017-08-18T12:12:50.852Z,2.23
2017-08-18T12:15:16.655Z,2.40
2017-08-18T12:17:42.400Z,2.43
2017-08-18T12:20:08.150Z,2.07
2017-08-18T12:22:33.950Z,2.80
2017-08-18T12:24:59.730Z,2.17
2017-08-18T12:27:25.649Z,2.17
2017-08-18T12:29:51.438Z,2.40
2017-08-18T12:32:17.183Z,2.37
2017-08-18T12:34:42.926Z,2.00
2017-08-18T12:37:08.728Z,1.77
2017-08-18T12:39:34.487Z,2.00
2017-08-18T12:42:00.293Z,2.07
2017-08-18T12:44:26.075Z,1.53
2017-08-18T12:46:51.824Z,1.80
2017-08-18T12:49:17.614Z,2.07
2017-08-18T12:51:43.400Z,2.50
2017-08-18T12:54:09.270Z,1.70
2017-08-18T12:56:35.078Z,1.90
2017-08-18T12:59:00.916Z,2.40
2017-08-18T13:01:27.111Z,2.60
2017-08-18T13:03:52.942Z,2.03
2017-08-18T13:06:18.731Z,2.10
2017-08-18T13:08:45.167Z,2.70
2017-08-18T13:11:11.013Z,2.20
2017-08-18T13:13:36.858Z,2.80
2017-08-18T13:16:02.598Z,1.97
2017-08-18T13:18:28.452Z,2.23
2017-08-18T13:20:54.282Z,2.87
2017-08-18T13:23:20.035Z,2.10
2017-08-18T13:25:45.803Z,2.13
2017-08-18T13:28:11.759Z,2.20
2017-08-18T13:30:37.562Z,2.43
2017-08-18T13:33:03.375Z,2.80
2017-08-18T13:35:29.139Z,2.37
2017-08-18T13:37:55.023Z,2.37
2017-08-18T13:40:20.775Z,2.00
2017-08-18T13:42:46.587Z,2.07
2017-08-18T13:45:12.367Z,2.77
2017-08-18T13:47:38.115Z,1.80
2017-08-18T13:50:03.897Z,2.00
2017-08-18T13:52:29.667Z,2.13
2017-08-18T13:54:55.436Z,1.73
2017-08-18T13:57:21.229Z,2.23
2017-08-18T13:59:47.041Z,2.73
2017-08-18T14:02:12.810Z,3.10
2017-08-18T14:04:38.623Z,2.17
2017-08-18T14:07:04.414Z,2.73
2017-08-18T14:09:30.174Z,3.17
2017-08-18T14:11:55.910Z,20.07
2017-08-18T14:14:21.703Z,2.90
2017-08-18T14:16:47.470Z,2.40
2017-08-18T14:19:13.271Z,3.27
2017-08-18T14:21:39.030Z,2.60
2017-08-18T14:24:04.783Z,2.10
2017-08-18T14:26:36.579Z,2.60
2017-08-18T14:29:02.361Z,2.93
2017-08-18T14:31:28.211Z,3.00
2017-08-18T14:33:53.987Z,2.80
2017-08-18T14:36:19.743Z,2.47
2017-08-18T14:38:45.542Z,2.97
2017-08-18T14:41:11.331Z,2.87
2017-08-18T14:43:37.122Z,2.23
2017-08-18T14:46:02.884Z,2.63
2017-08-18T14:48:28.754Z,2.40
2017-08-18T14:50:54.532Z,3.30
2017-08-18T14:53:20.328Z,3.00
2017-08-18T14:55:46.119Z,3.30
2017-08-18T14:58:11.871Z,3.33
2017-08-18T15:00:37.679Z,3.07
2017-08-18T15:03:03.458Z,3.20
2017-08-18T15:05:29.279Z,2.80
2017-08-18T15:07:55.023Z,2.57
2017-08-18T15:10:20.843Z,3.80
2017-08-18T15:12:46.627Z,2.60
2017-08-18T15:15:12.415Z,2.90
2017-08-18T15:17:38.231Z,3.00
2017-08-18T15:20:04.008Z,2.87
2017-08-18T15:22:29.769Z,3.07
2017-08-18T15:24:55.622Z,3.03
2017-08-18T15:27:21.386Z,2.80
2017-08-18T15:29:47.143Z,3.37
2017-08-18T15:32:12.924Z,3.83
2017-08-18T15:34:38.676Z,3.60
2017-08-18T15:37:04.454Z,3.23
2017-08-18T15:39:30.239Z,2.50
2017-08-18T15:41:55.995Z,2.23
2017-08-18T15:44:21.779Z,1.50
2017-08-18T15:46:47.547Z,2.00
2017-08-18T15:49:13.308Z,1.50
2017-08-18T15:51:39.074Z,1.37
2017-08-18T15:54:04.855Z,1.00
2017-08-18T15:56:30.606Z,3.67
2017-08-18T15:58:56.371Z,2.80
2017-08-18T16:01:22.157Z,1.40
2017-08-18T16:03:47.939Z,1.20
2017-08-18T16:06:13.722Z,1.40
2017-08-18T16:08:40.306Z,1.87
2017-08-18T16:11:06.095Z,1.93
2017-08-18T16:13:31.882Z,1.40
2017-08-18T16:15:57.639Z,1.00
2017-08-18T16:18:23.426Z,1.50
2017-08-18T16:20:49.219Z,1.10
2017-08-18T16:23:14.983Z,1.03
2017-08-18T16:25:40.866Z,1.30
2017-08-18T16:28:06.643Z,0.90
2017-08-18T16:30:32.462Z,1.40
2017-08-18T16:32:58.343Z,1.23
2017-08-18T16:35:24.156Z,2.47
2017-08-18T16:37:50.117Z,1.40
2017-08-18T16:40:15.863Z,1.20
2017-08-18T16:42:41.630Z,1.30
2017-08-18T16:45:07.487Z,0.80
2017-08-18T16:47:33.275Z,0.90
2017-08-18T16:49:59.065Z,1.10
2017-08-18T16:52:24.840Z,0.90
2017-08-18T16:54:50.611Z,0.80
2017-08-18T16:57:16.386Z,0.80
2017-08-18T16:59:42.185Z,0.70
2017-08-18T17:02:07.951Z,0.80
2017-08-18T17:04:33.748Z,0.60
2017-08-18T17:06:59.522Z,0.80
2017-08-18T17:09:25.268Z,0.80
2017-08-18T17:11:51.115Z,0.93
2017-08-18T17:14:17.299Z,0.83
2017-08-18T17:16:43.051Z,0.80
2017-08-18T17:19:08.824Z,0.80
2017-08-18T17:21:34.599Z,0.90
2017-08-18T17:24:00.394Z,0.80
2017-08-18T17:26:26.145Z,1.00
2017-08-18T17:28:51.923Z,1.10
2017-08-18T17:31:17.731Z,0.80
2017-08-18T17:33:43.489Z,1.00
2017-08-18T17:36:09.282Z,0.73
2017-08-18T17:38:35.058Z,0.70
2017-08-18T17:41:00.899Z,0.80
2017-08-18T17:43:26.646Z,0.80
2017-08-18T17:45:52.459Z,0.70
2017-08-18T17:48:18.279Z,0.87
2017-08-18T17:50:44.037Z,0.77
2017-08-18T17:53:09.849Z,0.70
2017-08-18T17:55:35.631Z,0.67
2017-08-18T17:58:01.382Z,1.00
2017-08-18T18:00:27.191Z,1.10
2017-08-18T18:02:53.034Z,0.90
2017-08-18T18:05:18.809Z,0.70
2017-08-18T18:07:44.621Z,1.17
2017-08-18T18:10:10.432Z,0.80
2017-08-18T18:12:36.235Z,0.90
2017-08-18T18:15:01.980Z,0.90
2017-08-18T18:17:27.750Z,0.93
2017-08-18T18:19:53.498Z,0.90
2017-08-18T18:22:19.279Z,0.77
2017-08-18T18:24:45.034Z,0.77
2017-08-18T18:27:10.797Z,0.80
2017-08-18T18:29:36.611Z,0.60
2017-08-18T18:32:02.360Z,1.00
2017-08-18T18:34:28.116Z,2.17
2017-08-18T18:36:53.974Z,1.00
2017-08-18T18:39:19.727Z,1.20
2017-08-18T18:41:45.515Z,0.93
2017-08-18T18:44:11.282Z,0.93
2017-08-18T18:46:37.023Z,0.90
2017-08-18T18:49:02.914Z,0.90
2017-08-18T18:51:28.694Z,0.90
2017-08-18T18:53:54.495Z,0.80
2017-08-18T18:56:20.352Z,0.90
2017-08-18T18:58:46.115Z,1.20
2017-08-18T19:01:11.919Z,0.90
2017-08-18T19:03:37.690Z,0.80
2017-08-18T19:06:03.634Z,0.90
2017-08-18T19:08:29.422Z,0.97
2017-08-18T19:10:55.167Z,1.10
2017-08-18T19:13:20.919Z,0.80
2017-08-18T19:15:46.720Z,0.90
2017-08-18T19:18:12.466Z,0.77
2017-08-18T19:20:38.227Z,0.80
2017-08-18T19:23:04.003Z,0.77
2017-08-18T19:25:29.782Z,0.80
2017-08-18T19:27:55.549Z,0.70
2017-08-18T19:30:21.314Z,0.70
2017-08-18T19:32:47.174Z,0.90
2017-08-18T19:35:12.931Z,0.80
2017-08-18T19:37:38.783Z,0.70
2017-08-18T19:40:04.573Z,0.80
2017-08-18T19:42:30.342Z,0.70
2017-08-18T19:47:35.955Z,0.80
2017-08-18T19:50:01.700Z,0.80
2017-08-18T19:52:27.582Z,0.77
2017-08-18T19:54:53.354Z,0.70
2017-08-18T19:57:19.106Z,0.60
2017-08-18T19:59:44.950Z,0.73
2017-08-18T20:02:10.694Z,0.60
2017-08-18T20:04:36.514Z,0.80
2017-08-18T20:07:02.274Z,0.90
2017-08-18T20:09:28.057Z,0.90
2017-08-18T20:11:53.819Z,0.80
2017-08-18T20:14:19.590Z,0.80
2017-08-18T20:16:45.375Z,0.70
2017-08-18T20:19:11.119Z,0.80
2017-08-18T20:21:36.894Z,0.70
2017-08-18T20:24:02.674Z,1.00
2017-08-18T20:26:28.483Z,0.70
2017-08-18T20:28:54.250Z,0.70
2017-08-18T20:31:20.014Z,1.00
2017-08-18T20:33:45.759Z,0.80
2017-08-18T20:36:11.546Z,0.70
2017-08-18T20:38:37.331Z,0.70
2017-08-18T20:41:03.119Z,0.70
2017-08-18T20:43:28.919Z,0.70
2017-08-18T20:45:54.670Z,0.70
2017-08-18T20:48:20.548Z,0.80
2017-08-18T20:50:46.374Z,0.70
2017-08-18T20:53:12.155Z,0.90
2017-08-18T20:55:37.914Z,0.90
2017-08-18T20:58:03.754Z,0.90
2017-08-18T21:00:29.567Z,1.13
2017-08-18T21:02:55.335Z,0.80
2017-08-18T21:05:21.095Z,0.80
2017-08-18T21:07:46.879Z,0.80
2017-08-18T21:10:12.622Z,0.90
2017-08-18T21:12:38.437Z,0.90
2017-08-18T21:15:04.191Z,0.70
2017-08-18T21:17:29.995Z,0.63
2017-08-18T21:19:55.786Z,0.60
2017-08-18T21:22:21.525Z,0.70
2017-08-18T21:24:47.287Z,0.80
2017-08-18T21:27:13.099Z,0.60
2017-08-18T21:29:38.911Z,0.80
2017-08-18T21:32:04.691Z,0.80
2017-08-18T21:34:30.515Z,1.10
2017-08-18T21:36:56.265Z,0.93
2017-08-18T21:39:22.046Z,0.83
2017-08-18T21:41:47.803Z,0.90
2017-08-18T21:44:13.586Z,0.90
2017-08-18T21:46:39.346Z,0.60
2017-08-18T21:49:05.131Z,0.93
2017-08-18T21:51:30.894Z,0.70
2017-08-18T21:53:56.707Z,0.80
2017-08-18T21:56:22.479Z,0.90
2017-08-18T21:58:48.240Z,0.60
2017-08-18T22:01:14.050Z,0.80
2017-08-18T22:03:39.830Z,0.90
2017-08-18T22:06:05.628Z,0.80
2017-08-18T22:08:31.422Z,0.80
2017-08-18T22:10:57.171Z,0.80
2017-08-18T22:13:22.954Z,0.90
2017-08-18T22:15:48.755Z,0.80
2017-08-18T22:18:14.531Z,0.80
2017-08-18T22:20:40.270Z,0.90
2017-08-18T22:23:06.067Z,0.80
2017-08-18T22:25:31.857Z,0.70
2017-08-18T22:27:57.637Z,0.77
2017-08-18T22:30:23.415Z,0.83
2017-08-18T22:32:49.271Z,0.63
2017-08-18T22:35:15.015Z,0.77
2017-08-18T22:37:40.778Z,0.80
2017-08-18T22:40:06.635Z,1.13
2017-08-18T22:42:32.415Z,0.60
2017-08-18T22:44:58.171Z,1.00
2017-08-18T22:47:23.986Z,1.00
2017-08-18T22:49:49.750Z,0.80
2017-08-18T22:52:15.522Z,0.80
2017-08-18T22:54:41.351Z,0.80
2017-08-18T22:57:07.131Z,0.70
2017-08-18T22:59:32.902Z,0.80
2017-08-18T23:01:58.659Z,0.80
2017-08-18T23:04:24.450Z,0.63
2017-08-18T23:06:50.216Z,1.00
2017-08-18T23:09:15.962Z,0.70
2017-08-18T23:11:41.723Z,0.70
2017-08-18T23:14:07.495Z,0.90
2017-08-18T23:16:33.274Z,0.80
2017-08-18T23:18:59.022Z,0.90
2017-08-18T23:21:24.860Z,1.20
2017-08-18T23:23:50.604Z,1.17
2017-08-18T23:26:16.371Z,1.23
2017-08-18T23:28:42.142Z,1.60
2017-08-18T23:31:07.942Z,1.33
2017-08-18T23:33:33.712Z,1.07
2017-08-18T23:35:59.467Z,1.10
2017-08-18T23:38:25.264Z,1.30
2017-08-18T23:40:51.015Z,1.17
2017-08-18T23:43:16.790Z,0.90
2017-08-18T23:45:42.547Z,1.43
2017-08-18T23:48:08.334Z,1.10
2017-08-18T23:50:34.070Z,1.37
2017-08-18T23:52:59.831Z,1.00
2017-08-18T23:55:25.610Z,1.10
2017-08-18T23:57:51.398Z,1.23
